Time;durP1;ratioP1;P1;durP2;ratioP2;P2;SDS_P1;SDS_P2;PMS_P1;PMS_P2;Temp;Humidity;BMP_temperature;BMP_pressure;BME280_temperature;BME280_humidity;BME280_pressure;Samples;Min_cycle;Max_cycle;Signal;HPM_P1;HPM_P2
2022/04/20 00:01:29;;;;;;;7.17;5.50;;;;;;;;;;1707337;83;25724;-71
2022/04/20 00:03:55;;;;;;;8.05;6.12;;;;;;;;;;1707261;84;25629;-71
2022/04/20 00:06:21;;;;;;;9.20;6.45;;;;;;;;;;1707221;84;27917;-72
2022/04/20 00:08:48;;;;;;;9.95;6.33;;;;;;;;;;1707306;83;25751;-72
2022/04/20 00:11:14;;;;;;;7.67;6.03;;;;;;;;;;1707452;83;25529;-72
2022/04/20 00:13:40;;;;;;;7.35;6.53;;;;;;;;;;1707175;84;26183;-72
2022/04/20 00:16:06;;;;;;;7.85;6.30;;;;;;;;;;1707222;83;25467;-72
2022/04/20 00:18:32;;;;;;;10.20;7.10;;;;;;;;;;1707347;83;27359;-72
2022/04/20 00:20:57;;;;;;;8.83;7.10;;;;;;;;;;1707077;83;33260;-72
2022/04/20 00:23:23;;;;;;;8.05;6.45;;;;;;;;;;1707468;83;29556;-74
2022/04/20 00:25:49;;;;;;;9.58;6.30;;;;;;;;;;1706987;84;34866;-74
2022/04/20 00:28:15;;;;;;;9.98;7.17;;;;;;;;;;1707710;83;32555;-74
2022/04/20 00:30:41;;;;;;;8.03;6.47;;;;;;;;;;1707682;83;28049;-74
2022/04/20 00:33:07;;;;;;;10.13;7.10;;;;;;;;;;1707620;83;33524;-74
2022/04/20 00:35:32;;;;;;;8.00;6.87;;;;;;;;;;1707710;83;29542;-74
2022/04/20 00:37:58;;;;;;;10.80;7.05;;;;;;;;;;1707686;83;34842;-74
2022/04/20 00:40:24;;;;;;;9.48;7.67;;;;;;;;;;1707662;83;32186;-73
2022/04/20 00:42:50;;;;;;;11.50;7.85;;;;;;;;;;1707712;83;27477;-73
2022/04/20 00:45:16;;;;;;;8.55;7.58;;;;;;;;;;1707664;83;33118;-73
2022/04/20 00:47:43;;;;;;;9.48;7.87;;;;;;;;;;1707719;83;29532;-73
2022/04/20 00:50:10;;;;;;;10.85;8.25;;;;;;;;;;1707631;83;25623;-73
2022/04/20 00:52:36;;;;;;;10.23;8.33;;;;;;;;;;1707719;84;26025;-73
2022/04/20 00:55:06;;;;;;;12.55;8.00;;;;;;;;;;1707723;83;27286;-73
2022/04/20 00:57:33;;;;;;;11.88;8.58;;;;;;;;;;1707589;83;25390;-73
2022/04/20 01:00:01;;;;;;;13.05;8.93;;;;;;;;;;1707675;84;25418;-73
2022/04/20 01:02:27;;;;;;;12.82;8.70;;;;;;;;;;1707429;84;26358;-73
2022/04/20 01:04:53;;;;;;;9.95;8.20;;;;;;;;;;1707749;84;25436;-73
2022/04/20 01:07:23;;;;;;;11.97;8.73;;;;;;;;;;1707690;83;27461;-73
2022/04/20 01:09:49;;;;;;;12.10;8.95;;;;;;;;;;1707701;84;25627;-73
2022/04/20 01:12:16;;;;;;;10.65;8.65;;;;;;;;;;1707677;83;29591;-73
2022/04/20 01:14:42;;;;;;;11.57;9.33;;;;;;;;;;1707654;83;26464;-73
2022/04/20 01:17:08;;;;;;;13.00;9.73;;;;;;;;;;1707660;83;25467;-73
2022/04/20 01:19:38;;;;;;;12.95;10.15;;;;;;;;;;1707697;83;27422;-73
2022/04/20 01:22:05;;;;;;;13.60;9.78;;;;;;;;;;1707589;83;25608;-73
2022/04/20 01:24:33;;;;;;;12.25;9.25;;;;;;;;;;1707663;83;25525;-74
2022/04/20 01:27:00;;;;;;;13.98;9.80;;;;;;;;;;1707656;83;25694;-73
2022/04/20 01:29:29;;;;;;;12.35;9.53;;;;;;;;;;1707674;84;25448;-74
2022/04/20 01:31:56;;;;;;;12.20;9.00;;;;;;;;;;1707780;84;27384;-74
2022/04/20 01:34:22;;;;;;;11.20;9.73;;;;;;;;;;1707591;83;25487;-74
2022/04/20 01:36:49;;;;;;;14.83;9.30;;;;;;;;;;1707667;83;25460;-74
2022/04/20 01:39:15;;;;;;;16.67;10.68;;;;;;;;;;1707642;83;26362;-74
2022/04/20 01:41:42;;;;;;;13.32;9.50;;;;;;;;;;1707658;83;25471;-74
2022/04/20 01:44:08;;;;;;;12.30;9.93;;;;;;;;;;1707672;83;28097;-71
2022/04/20 01:46:34;;;;;;;14.35;9.98;;;;;;;;;;1707592;83;25409;-73
2022/04/20 01:49:01;;;;;;;16.07;9.93;;;;;;;;;;1707634;83;29603;-73
2022/04/20 01:54:12;;;;;;;14.58;9.60;;;;;;;;;;1707704;83;25603;-73
2022/04/20 01:56:38;;;;;;;13.95;10.00;;;;;;;;;;1707664;83;27317;-73
2022/04/20 01:59:04;;;;;;;12.82;10.13;;;;;;;;;;1707598;84;33398;-74
2022/04/20 02:04:14;;;;;;;12.05;9.65;;;;;;;;;;1707627;83;25780;-74
2022/04/20 02:06:40;;;;;;;12.35;9.88;;;;;;;;;;1707668;83;32672;-74
2022/04/20 02:09:06;;;;;;;15.18;10.78;;;;;;;;;;1707643;84;27605;-74
2022/04/20 02:11:32;;;;;;;15.45;11.03;;;;;;;;;;1707561;83;33062;-73
2022/04/20 02:13:59;;;;;;;13.85;10.50;;;;;;;;;;1707659;83;29656;-73
2022/04/20 02:16:25;;;;;;;15.10;11.50;;;;;;;;;;1707568;84;25640;-72
2022/04/20 02:18:51;;;;;;;17.77;11.55;;;;;;;;;;1707671;84;25522;-73
2022/04/20 02:21:17;;;;;;;13.40;11.80;;;;;;;;;;1707645;83;27443;-73
2022/04/20 02:23:43;;;;;;;14.58;12.03;;;;;;;;;;1707556;84;33391;-73
2022/04/20 02:26:09;;;;;;;14.95;11.75;;;;;;;;;;1707629;83;29651;-74
2022/04/20 02:28:35;;;;;;;15.30;12.15;;;;;;;;;;1707572;84;34691;-73
2022/04/20 02:31:01;;;;;;;15.55;12.53;;;;;;;;;;1707639;83;25609;-74
2022/04/20 02:33:27;;;;;;;16.00;13.20;;;;;;;;;;1707612;83;27399;-74
2022/04/20 02:35:53;;;;;;;15.53;12.58;;;;;;;;;;1707524;83;33441;-74
2022/04/20 02:38:19;;;;;;;14.30;12.07;;;;;;;;;;1707626;83;29610;-74
2022/04/20 02:40:45;;;;;;;14.58;12.18;;;;;;;;;;1707549;83;25416;-74
2022/04/20 02:43:11;;;;;;;19.90;13.20;;;;;;;;;;1707650;83;25551;-74
2022/04/20 02:45:38;;;;;;;16.32;12.68;;;;;;;;;;1707647;84;28123;-74
2022/04/20 02:48:04;;;;;;;14.93;12.60;;;;;;;;;;1707571;83;25668;-74
2022/04/20 02:50:30;;;;;;;13.50;11.70;;;;;;;;;;1707584;83;25481;-74
2022/04/20 02:52:56;;;;;;;14.50;12.85;;;;;;;;;;1707585;83;34726;-74
2022/04/20 02:55:22;;;;;;;15.15;12.33;;;;;;;;;;1707656;83;25664;-74
2022/04/20 02:57:48;;;;;;;14.25;12.10;;;;;;;;;;1707636;83;27426;-74
2022/04/20 03:00:15;;;;;;;13.58;12.07;;;;;;;;;;1707511;84;33041;-74
2022/04/20 03:02:41;;;;;;;14.85;12.43;;;;;;;;;;1707612;83;25575;-74
2022/04/20 03:05:07;;;;;;;12.75;11.35;;;;;;;;;;1707572;83;34877;-74
2022/04/20 03:07:33;;;;;;;12.78;11.15;;;;;;;;;;1707636;83;25620;-74
2022/04/20 03:09:59;;;;;;;13.13;10.88;;;;;;;;;;1707656;83;27418;-74
2022/04/20 03:12:25;;;;;;;13.25;10.63;;;;;;;;;;1707534;84;33472;-73
2022/04/20 03:14:54;;;;;;;13.83;11.20;;;;;;;;;;1707600;84;29756;-73
2022/04/20 03:17:18;;;;;;;13.38;11.15;;;;;;;;;;1677610;84;25613;-73
2022/04/20 03:19:44;;;;;;;12.20;10.75;;;;;;;;;;1707749;83;32168;-73
2022/04/20 03:22:10;;;;;;;11.00;9.88;;;;;;;;;;1707683;84;27547;-72
2022/04/20 03:24:36;;;;;;;11.33;9.90;;;;;;;;;;1707577;83;33657;-72
2022/04/20 03:27:03;;;;;;;11.43;10.08;;;;;;;;;;1707669;83;25438;-72
2022/04/20 03:29:29;;;;;;;12.33;11.03;;;;;;;;;;1707557;83;25673;-72
2022/04/20 03:31:55;;;;;;;11.97;10.30;;;;;;;;;;1707611;84;32521;-72
2022/04/20 03:34:20;;;;;;;11.38;9.60;;;;;;;;;;1707614;83;27409;-72
2022/04/20 03:36:47;;;;;;;12.37;10.28;;;;;;;;;;1707534;84;33545;-71
2022/04/20 03:39:13;;;;;;;12.28;10.25;;;;;;;;;;1707603;83;25526;-71
2022/04/20 03:41:39;;;;;;;12.20;10.45;;;;;;;;;;1710974;83;34811;-71
2022/04/20 03:44:05;;;;;;;11.85;10.08;;;;;;;;;;1712602;83;32131;-71
2022/04/20 03:46:31;;;;;;;12.23;10.13;;;;;;;;;;1712558;82;27375;-71
2022/04/20 03:48:57;;;;;;;11.35;10.08;;;;;;;;;;1712477;83;33576;-71
2022/04/20 03:51:23;;;;;;;10.88;9.78;;;;;;;;;;1712525;83;29551;-71
2022/04/20 03:53:48;;;;;;;11.40;9.95;;;;;;;;;;1712535;83;34762;-71
2022/04/20 03:56:14;;;;;;;10.65;9.55;;;;;;;;;;1712584;83;32175;-71
2022/04/20 03:58:40;;;;;;;10.18;9.15;;;;;;;;;;1712553;83;27413;-70
2022/04/20 04:01:06;;;;;;;10.75;9.65;;;;;;;;;;1712430;83;33175;-70
2022/04/20 04:03:32;;;;;;;12.15;10.53;;;;;;;;;;1712556;82;29619;-70
2022/04/20 04:05:58;;;;;;;13.50;11.53;;;;;;;;;;1726741;82;25636;-70
2022/04/20 04:08:24;;;;;;;12.88;11.18;;;;;;;;;;1712561;83;32584;-70
2022/04/20 04:10:50;;;;;;;14.25;12.28;;;;;;;;;;1712512;82;27969;-70
2022/04/20 04:13:17;;;;;;;12.75;11.28;;;;;;;;;;1712453;83;33169;-70
2022/04/20 04:15:44;;;;;;;15.88;12.37;;;;;;;;;;1712546;83;25449;-70
2022/04/20 04:18:10;;;;;;;13.75;12.28;;;;;;;;;;1712550;82;25623;-70
2022/04/20 04:20:36;;;;;;;13.60;12.20;;;;;;;;;;1712595;83;25524;-70
2022/04/20 04:23:02;;;;;;;14.25;12.43;;;;;;;;;;1712551;82;28125;-69
2022/04/20 04:25:29;;;;;;;14.05;12.35;;;;;;;;;;1712469;83;33134;-69
2022/04/20 04:27:55;;;;;;;13.68;11.40;;;;;;;;;;1712560;82;25385;-69
2022/04/20 04:30:21;;;;;;;16.35;12.18;;;;;;;;;;1712505;83;25697;-69
2022/04/20 04:32:47;;;;;;;12.23;10.85;;;;;;;;;;1712552;82;25426;-69
2022/04/20 04:35:14;;;;;;;12.35;11.05;;;;;;;;;;1712560;83;27353;-69
2022/04/20 04:37:40;;;;;;;12.45;11.15;;;;;;;;;;1712492;82;25410;-69
2022/04/20 04:40:08;;;;;;;12.10;9.38;;;;;;;;;;1712502;83;29948;-69
2022/04/20 04:42:34;;;;;;;11.88;9.45;;;;;;;;;;1707976;82;25594;-69
2022/04/20 04:48:36;;;;;;;11.93;9.93;;;;;;;;;;1707726;84;32338;-69
2022/04/20 04:50:13;;;;;;;9.50;8.03;;;;;;;;;;1707635;83;25477;-68
2022/04/20 04:52:39;;;;;;;10.20;8.50;;;;;;;;;;1707684;83;25603;-69
2022/04/20 04:55:06;;;;;;;10.45;8.75;;;;;;;;;;1707656;84;34643;-69
2022/04/20 04:57:32;;;;;;;13.88;11.00;;;;;;;;;;1707789;83;25408;-69
2022/04/20 04:59:58;;;;;;;15.88;12.00;;;;;;;;;;1707657;84;27400;-68
2022/04/20 05:02:24;;;;;;;10.80;8.63;;;;;;;;;;1707623;83;33032;-70
2022/04/20 05:04:50;;;;;;;11.65;9.18;;;;;;;;;;1707658;84;25360;-70
2022/04/20 05:07:16;;;;;;;9.78;8.78;;;;;;;;;;1707659;83;34818;-69
2022/04/20 05:09:44;;;;;;;11.10;9.00;;;;;;;;;;1707694;83;32317;-69
2022/04/20 05:12:10;;;;;;;10.50;9.40;;;;;;;;;;1707674;83;27483;-68
2022/04/20 05:14:37;;;;;;;11.78;9.08;;;;;;;;;;1707637;83;25596;-69
2022/04/20 05:17:05;;;;;;;13.28;10.03;;;;;;;;;;1707693;84;25540;-70
2022/04/20 05:19:31;;;;;;;11.85;9.98;;;;;;;;;;1707729;83;25624;-70
2022/04/20 05:21:57;;;;;;;13.70;10.08;;;;;;;;;;1707782;83;25581;-69
2022/04/20 05:24:23;;;;;;;11.30;9.63;;;;;;;;;;1707728;84;27817;-70
2022/04/20 05:26:49;;;;;;;9.93;8.63;;;;;;;;;;1707621;83;33104;-70
2022/04/20 05:29:17;;;;;;;10.95;8.68;;;;;;;;;;1707753;83;25417;-69
2022/04/20 05:31:46;;;;;;;10.30;8.53;;;;;;;;;;1709863;81;25709;-70
2022/04/20 05:34:12;;;;;;;10.53;8.38;;;;;;;;;;1707867;84;25546;-70
2022/04/20 05:42:11;;;;;;;15.93;11.85;;;;;;;;;;1714213;83;25451;-68
2022/04/20 05:44:37;;;;;;;15.60;11.05;;;;;;;;;;1707921;84;34774;-69
2022/04/20 05:47:03;;;;;;;12.82;10.53;;;;;;;;;;1673602;85;32196;-68
2022/04/20 05:49:29;;;;;;;10.45;9.20;;;;;;;;;;1673589;84;28037;-68
2022/04/20 05:51:55;;;;;;;10.10;8.83;;;;;;;;;;1667959;86;25481;-69
2022/04/20 05:54:21;;;;;;;10.48;9.25;;;;;;;;;;1673563;85;25526;-69
2022/04/20 05:56:47;;;;;;;11.12;9.88;;;;;;;;;;1668007;86;34779;-69
2022/04/20 05:59:13;;;;;;;12.53;10.08;;;;;;;;;;1673685;85;32195;-68
2022/04/20 06:01:40;;;;;;;12.23;9.98;;;;;;;;;;1673743;85;27607;-69
2022/04/20 06:04:06;;;;;;;12.23;9.35;;;;;;;;;;1667983;86;25711;-69
2022/04/20 06:06:32;;;;;;;12.15;9.68;;;;;;;;;;1673774;85;25632;-69
2022/04/20 06:09:00;;;;;;;12.25;9.45;;;;;;;;;;1668249;86;25819;-70
2022/04/20 06:11:29;;;;;;;11.22;8.75;;;;;;;;;;1668456;85;25643;-69
2022/04/20 06:13:55;;;;;;;10.30;8.03;;;;;;;;;;1681537;84;27485;-68
2022/04/20 06:16:21;;;;;;;8.68;7.78;;;;;;;;;;1674925;84;26037;-69
2022/04/20 06:18:47;;;;;;;9.33;7.97;;;;;;;;;;1701015;84;25659;-68
2022/04/20 06:21:14;;;;;;;7.42;6.60;;;;;;;;;;1678636;85;25709;-70
2022/04/20 06:23:40;;;;;;;8.73;7.25;;;;;;;;;;1679444;85;25632;-70
2022/04/20 06:26:06;;;;;;;10.40;8.18;;;;;;;;;;1679408;85;28050;-70
2022/04/20 06:28:32;;;;;;;17.60;12.63;;;;;;;;;;1679237;85;25776;-70
2022/04/20 06:30:58;;;;;;;12.63;9.70;;;;;;;;;;1679285;85;25647;-70
2022/04/20 06:33:25;;;;;;;16.40;11.73;;;;;;;;;;1679458;85;25642;-70
2022/04/20 06:35:53;;;;;;;14.45;11.33;;;;;;;;;;1679704;85;25710;-70
2022/04/20 06:38:20;;;;;;;11.65;8.65;;;;;;;;;;1679398;84;27178;-70
2022/04/20 06:40:46;;;;;;;9.73;7.67;;;;;;;;;;1678680;85;25797;-70
2022/04/20 06:43:13;;;;;;;13.03;8.58;;;;;;;;;;1679590;83;25527;-70
2022/04/20 06:45:39;;;;;;;8.58;6.75;;;;;;;;;;1678118;85;34740;-70
2022/04/20 06:48:05;;;;;;;11.38;7.92;;;;;;;;;;1679801;85;25595;-70
2022/04/20 06:50:31;;;;;;;12.80;7.47;;;;;;;;;;1679698;84;27439;-71
2022/04/20 06:58:33;;;;;;;12.47;8.40;;;;;;;;;;1679662;85;25632;-70
2022/04/20 07:01:01;;;;;;;11.43;8.55;;;;;;;;;;1679845;84;25427;-70
2022/04/20 07:03:27;;;;;;;19.57;11.63;;;;;;;;;;1680112;84;27341;-71
2022/04/20 07:05:54;;;;;;;22.22;10.95;;;;;;;;;;1679995;84;33027;-71
2022/04/20 07:08:19;;;;;;;28.62;13.53;;;;;;;;;;1679965;85;25604;-71
2022/04/20 07:10:47;;;;;;;25.68;12.13;;;;;;;;;;1680313;85;25679;-71
2022/04/20 07:13:15;;;;;;;24.72;12.35;;;;;;;;;;1680216;84;25662;-71
2022/04/20 07:15:42;;;;;;;20.27;10.90;;;;;;;;;;1680062;85;27143;-71
2022/04/20 07:18:08;;;;;;;13.38;9.65;;;;;;;;;;1679762;84;25759;-71
2022/04/20 07:20:34;;;;;;;10.80;7.00;;;;;;;;;;1669789;85;25497;-71
2022/04/20 07:23:00;;;;;;;13.28;7.37;;;;;;;;;;1679612;85;25702;-71
2022/04/20 07:25:26;;;;;;;9.18;6.72;;;;;;;;;;1679702;84;32369;-70
2022/04/20 07:27:52;;;;;;;10.15;6.87;;;;;;;;;;1679731;85;27091;-70
2022/04/20 07:30:19;;;;;;;18.73;8.25;;;;;;;;;;1679683;85;25555;-70
2022/04/20 07:32:46;;;;;;;14.45;8.23;;;;;;;;;;1679776;85;25645;-70
2022/04/20 07:35:12;;;;;;;11.68;7.72;;;;;;;;;;1679721;84;25667;-71
2022/04/20 07:37:38;;;;;;;11.73;8.35;;;;;;;;;;1679822;85;25710;-71
2022/04/20 07:40:07;;;;;;;10.98;8.05;;;;;;;;;;1680120;85;27511;-72
2022/04/20 07:42:36;;;;;;;9.43;7.67;;;;;;;;;;1698687;82;25610;-71
2022/04/20 07:45:03;;;;;;;10.30;7.33;;;;;;;;;;1742842;82;25492;-71
2022/04/20 07:47:29;;;;;;;10.30;6.53;;;;;;;;;;1779820;80;25790;-72
2022/04/20 07:52:43;;;;;;;8.23;5.95;;;;;;;;;;1779837;80;27387;-71
2022/04/20 07:55:14;;;;;;;8.93;5.92;;;;;;;;;;1742608;82;25619;-71
2022/04/20 07:57:43;;;;;;;8.35;5.58;;;;;;;;;;1779804;80;25548;-72
2022/04/20 08:00:13;;;;;;;9.37;5.93;;;;;;;;;;1742758;82;25623;-72
2022/04/20 08:02:39;;;;;;;;;;;;;;;;;;1782513;80;25530;-72
2022/04/20 08:05:06;;;;;;;11.12;6.70;;;;;;;;;;1779922;80;27314;-72
2022/04/20 08:07:33;;;;;;;8.10;6.15;;;;;;;;;;1742570;82;25532;-72
2022/04/20 08:09:59;;;;;;;9.60;6.17;;;;;;;;;;1780140;80;25404;-71
2022/04/20 08:12:28;;;;;;;7.78;5.50;;;;;;;;;;1742515;82;34665;-71
2022/04/20 08:14:52;;;;;;;7.58;5.40;;;;;;;;;;1779552;80;25375;-71
2022/04/20 08:17:18;;;;;;;6.35;5.15;;;;;;;;;;1779867;80;27940;-71
2022/04/20 08:19:44;;;;;;;6.85;5.55;;;;;;;;;;1779717;80;33361;-71
2022/04/20 08:22:10;;;;;;;6.40;5.08;;;;;;;;;;1742590;82;29734;-72
2022/04/20 08:24:36;;;;;;;15.90;10.60;;;;;;;;;;1779814;80;34654;-72
2022/04/20 08:27:02;;;;;;;10.28;7.65;;;;;;;;;;1779934;80;25600;-72
2022/04/20 08:29:28;;;;;;;8.25;6.30;;;;;;;;;;1779986;80;27380;-72
2022/04/20 08:31:54;;;;;;;7.53;6.25;;;;;;;;;;1742664;82;25493;-72
2022/04/20 08:34:20;;;;;;;7.97;6.20;;;;;;;;;;1742737;82;30140;-72
2022/04/20 08:36:46;;;;;;;6.10;5.50;;;;;;;;;;1742644;82;35102;-72
2022/04/20 08:39:16;;;;;;;6.45;5.72;;;;;;;;;;1743007;82;32230;-71
2022/04/20 08:41:47;;;;;;;8.75;6.03;;;;;;;;;;1750218;80;26505;-72
2022/04/20 08:44:14;;;;;;;9.98;7.83;;;;;;;;;;1737499;82;25520;-72
2022/04/20 08:46:41;;;;;;;10.28;7.85;;;;;;;;;;1737585;82;25304;-72
2022/04/20 08:49:09;;;;;;;9.30;7.40;;;;;;;;;;1737526;82;26175;-73
2022/04/20 08:54:21;;;;;;;8.15;6.03;;;;;;;;;;1737579;82;27321;-71
2022/04/20 08:59:33;;;;;;;9.18;6.60;;;;;;;;;;1737519;82;25527;-72
2022/04/20 09:02:00;;;;;;;7.22;5.55;;;;;;;;;;1737409;82;25589;-72
2022/04/20 09:04:26;;;;;;;6.20;5.37;;;;;;;;;;1737548;82;25527;-71
2022/04/20 09:06:54;;;;;;;9.43;5.45;;;;;;;;;;1737499;82;27401;-72
2022/04/20 09:09:28;;;;;;;6.17;5.58;;;;;;;;;;1737638;82;25382;-72
2022/04/20 09:11:52;;;;;;;6.37;5.67;;;;;;;;;;1737059;82;25582;-72
2022/04/20 09:14:19;;;;;;;6.12;5.40;;;;;;;;;;1737478;82;25571;-72
2022/04/20 09:16:46;;;;;;;5.40;4.60;;;;;;;;;;1707005;82;25601;-72
2022/04/20 09:19:12;;;;;;;6.60;5.37;;;;;;;;;;1777342;80;27310;-72
2022/04/20 09:21:38;;;;;;;8.00;6.05;;;;;;;;;;1737486;82;33121;-71
2022/04/20 09:24:07;;;;;;;6.50;5.15;;;;;;;;;;1737645;82;25489;-72
2022/04/20 09:26:33;;;;;;;6.70;5.80;;;;;;;;;;1706770;83;26227;-70
2022/04/20 09:29:08;;;;;;;6.12;5.50;;;;;;;;;;1775608;80;32828;-71
2022/04/20 09:31:45;;;;;;;7.17;5.10;;;;;;;;;;1737177;82;27328;-71
2022/04/20 09:34:26;;;;;;;7.12;5.47;;;;;;;;;;1737081;82;25541;-70
2022/04/20 09:36:54;;;;;;;7.53;5.22;;;;;;;;;;1693290;83;25631;-71
2022/04/20 09:39:21;;;;;;;8.33;6.22;;;;;;;;;;1737096;82;25705;-72
2022/04/20 09:42:01;;;;;;;8.10;6.17;;;;;;;;;;1737107;82;25675;-72
2022/04/20 09:44:29;;;;;;;7.65;5.75;;;;;;;;;;1706408;82;27706;-72
2022/04/20 09:50:02;;;;;;;12.73;8.80;;;;;;;;;;1736869;82;25699;-71
2022/04/20 09:52:42;;;;;;;7.67;6.08;;;;;;;;;;1737252;82;25647;-72
2022/04/20 09:55:12;;;;;;;6.20;5.30;;;;;;;;;;1737198;82;25469;-70
2022/04/20 09:57:38;;;;;;;;;;;;;;;;;;1739599;82;27326;-71
2022/04/20 10:00:14;;;;;;;9.45;6.90;;;;;;;;;;1706244;84;25444;-70
2022/04/20 10:02:47;;;;;;;8.08;6.75;;;;;;;;;;1777014;80;25751;-71
2022/04/20 10:05:15;;;;;;;7.10;5.65;;;;;;;;;;1776422;79;25627;-71
2022/04/20 10:07:41;;;;;;;7.35;6.12;;;;;;;;;;1777007;80;25703;-71
2022/04/20 10:10:09;;;;;;;9.90;6.05;;;;;;;;;;1737486;82;27353;-71
2022/04/20 10:12:38;;;;;;;6.62;5.87;;;;;;;;;;1737240;82;25489;-71
2022/04/20 10:17:57;;;;;;;8.05;5.83;;;;;;;;;;1737182;82;25785;-71
2022/04/20 10:20:25;;;;;;;6.35;5.75;;;;;;;;;;1736885;82;25701;-70
2022/04/20 10:22:54;;;;;;;8.85;6.08;;;;;;;;;;1737095;82;27512;-70
2022/04/20 10:25:21;;;;;;;8.87;6.60;;;;;;;;;;1737368;82;25615;-70
2022/04/20 10:28:17;;;;;;;8.68;7.55;;;;;;;;;;1736909;82;25646;-70
2022/04/20 10:31:10;;;;;;;8.05;5.60;;;;;;;;;;1737148;82;25701;-70
2022/04/20 10:33:39;;;;;;;17.62;10.03;;;;;;;;;;1706627;84;25697;-71
2022/04/20 10:36:11;;;;;;;12.23;8.43;;;;;;;;;;1706501;83;27410;-71
2022/04/20 10:38:35;;;;;;;9.75;6.55;;;;;;;;;;1776615;80;25478;-70
2022/04/20 10:41:07;;;;;;;16.95;9.75;;;;;;;;;;1777023;80;25260;-72
2022/04/20 10:43:38;;;;;;;12.47;8.73;;;;;;;;;;1776569;79;25819;-71
2022/04/20 10:46:18;;;;;;;13.60;8.43;;;;;;;;;;1776911;80;25617;-71
2022/04/20 10:48:55;;;;;;;10.05;7.62;;;;;;;;;;1736644;82;27539;-72
2022/04/20 10:51:33;;;;;;;10.00;7.42;;;;;;;;;;1706546;82;25433;-71
2022/04/20 10:54:24;;;;;;;12.82;9.25;;;;;;;;;;1777030;80;25636;-70
2022/04/20 10:57:02;;;;;;;9.90;7.70;;;;;;;;;;1776730;80;25789;-70
2022/04/20 10:59:28;;;;;;;10.53;7.45;;;;;;;;;;1776841;80;25480;-70
2022/04/20 11:02:06;;;;;;;14.03;7.30;;;;;;;;;;1776988;80;27384;-71
2022/04/20 11:04:46;;;;;;;39.48;20.08;;;;;;;;;;1736694;82;25413;-71
2022/04/20 11:07:12;;;;;;;45.45;23.70;;;;;;;;;;1705870;82;25561;-71
2022/04/20 11:09:49;;;;;;;33.08;18.67;;;;;;;;;;1706366;84;25673;-72
2022/04/20 11:21:10;;;;;;;8.50;7.08;;;;;;;;;;1706334;84;25574;-71
2022/04/20 11:23:57;;;;;;;10.30;8.35;;;;;;;;;;1776977;80;26167;-70
2022/04/20 11:26:21;;;;;;;11.63;8.43;;;;;;;;;;1775283;80;25541;-70
2022/04/20 11:28:48;;;;;;;9.30;7.97;;;;;;;;;;1737038;82;27360;-71
2022/04/20 11:31:16;;;;;;;8.43;7.20;;;;;;;;;;1736834;82;25821;-71
2022/04/20 11:33:42;;;;;;;10.53;7.55;;;;;;;;;;1706041;83;25607;-70
2022/04/20 11:36:16;;;;;;;9.78;7.85;;;;;;;;;;1776762;80;26312;-70
2022/04/20 11:38:53;;;;;;;10.25;8.30;;;;;;;;;;1776833;80;25433;-70
2022/04/20 11:41:16;;;;;;;11.73;9.03;;;;;;;;;;1775113;80;27379;-70
2022/04/20 11:43:44;;;;;;;9.15;7.92;;;;;;;;;;1736767;82;25479;-69
2022/04/20 11:46:11;;;;;;;11.35;8.20;;;;;;;;;;1736633;82;25446;-70
2022/04/20 11:48:39;;;;;;;13.20;8.83;;;;;;;;;;1736342;82;27871;-69
2022/04/20 11:51:09;;;;;;;10.95;7.75;;;;;;;;;;1696018;84;25765;-70
2022/04/20 11:53:41;;;;;;;13.55;9.83;;;;;;;;;;1774052;80;27364;-69
2022/04/20 11:56:09;;;;;;;14.38;12.00;;;;;;;;;;1773806;80;25454;-71
2022/04/20 11:58:37;;;;;;;12.68;10.00;;;;;;;;;;1774041;80;25622;-70
2022/04/20 12:01:06;;;;;;;11.78;9.05;;;;;;;;;;1752730;80;25813;-70
2022/04/20 12:03:33;;;;;;;11.23;8.47;;;;;;;;;;1736886;81;25766;-69
2022/04/20 12:06:01;;;;;;;9.65;8.65;;;;;;;;;;1736998;82;27330;-70
2022/04/20 12:08:27;;;;;;;10.93;8.38;;;;;;;;;;1736847;82;25788;-70
2022/04/20 12:10:53;;;;;;;11.88;8.85;;;;;;;;;;1737082;82;29573;-69
2022/04/20 12:13:26;;;;;;;10.00;8.63;;;;;;;;;;1736878;82;25626;-69
2022/04/20 12:16:12;;;;;;;10.08;8.38;;;;;;;;;;1706315;83;25471;-70
2022/04/20 12:18:44;;;;;;;11.12;8.33;;;;;;;;;;1774218;80;27314;-71
2022/04/20 12:21:42;;;;;;;11.65;9.58;;;;;;;;;;1774238;80;25636;-71
2022/04/20 12:24:12;;;;;;;11.38;9.10;;;;;;;;;;1774383;80;25191;-69
2022/04/20 12:26:43;;;;;;;12.53;9.73;;;;;;;;;;1735445;82;26212;-70
2022/04/20 12:29:12;;;;;;;12.55;9.85;;;;;;;;;;1736978;82;25588;-70
2022/04/20 12:31:41;;;;;;;10.45;8.48;;;;;;;;;;1706276;84;27404;-71
2022/04/20 12:34:08;;;;;;;12.47;9.60;;;;;;;;;;1774138;80;25569;-70
2022/04/20 12:36:56;;;;;;;14.38;10.55;;;;;;;;;;1736896;81;25480;-70
2022/04/20 12:39:25;;;;;;;20.17;12.60;;;;;;;;;;1673241;85;25793;-71
2022/04/20 12:41:57;;;;;;;15.10;11.70;;;;;;;;;;1743631;82;25567;-71
2022/04/20 12:44:38;;;;;;;22.27;14.80;;;;;;;;;;1749182;81;27406;-70
2022/04/20 12:47:17;;;;;;;26.57;16.12;;;;;;;;;;1753605;81;25652;-70
2022/04/20 12:49:55;;;;;;;19.05;12.80;;;;;;;;;;1753619;81;25537;-70
2022/04/20 12:52:23;;;;;;;15.15;11.85;;;;;;;;;;1753582;81;25684;-70
2022/04/20 12:54:55;;;;;;;25.52;14.28;;;;;;;;;;1739928;82;25765;-71
2022/04/20 13:03:22;;;;;;;40.85;20.45;;;;;;;9.96;73.15;99695.80;1857626;77;25564;-70
2022/04/20 13:05:49;;;;;;;33.23;19.42;;;;;;;9.97;73.04;99698.75;1857328;77;27678;-70
2022/04/20 13:08:16;;;;;;;21.62;14.45;;;;;;;9.97;73.13;99702.24;1857673;77;25703;-72
2022/04/20 13:10:49;;;;;;;15.13;11.70;;;;;;;9.97;73.08;99696.84;1857692;77;25714;-71
2022/04/20 13:13:15;;;;;;;13.98;11.45;;;;;;;9.92;72.88;99697.00;1857702;77;25667;-71
2022/04/20 13:15:45;;;;;;;21.48;15.25;;;;;;;9.90;73.11;99696.53;1857860;77;25666;-70
2022/04/20 13:18:12;;;;;;;28.10;18.82;;;;;;;9.89;73.45;99696.28;1838405;77;28179;-70
2022/04/20 13:20:38;;;;;;;26.95;17.45;;;;;;;9.93;73.78;99706.70;1825203;77;25465;-71
2022/04/20 13:23:05;;;;;;;22.02;16.95;;;;;;;9.93;73.52;99708.05;1851072;77;25694;-71
2022/04/20 13:28:17;;;;;;;19.37;14.70;;;;;;;9.94;73.54;99710.98;1823970;78;25430;-70
2022/04/20 13:30:46;;;;;;;23.60;15.20;;;;;;;9.99;73.92;99706.77;1823848;78;26835;-70
2022/04/20 13:33:15;;;;;;;23.05;14.87;;;;;;;10.02;73.65;99714.80;1823720;78;25628;-71
2022/04/20 13:35:46;;;;;;;19.90;13.40;;;;;;;10.06;73.75;99722.50;1823938;78;25706;-71
2022/04/20 13:38:12;;;;;;;17.62;12.93;;;;;;;10.08;73.39;99723.00;1823895;78;25656;-69
2022/04/20 13:40:54;;;;;;;14.93;11.75;;;;;;;10.09;73.15;99724.56;1826710;78;25411;-70
2022/04/20 13:43:20;;;;;;;15.78;11.68;;;;;;;10.05;73.13;99726.33;1828475;76;28037;-71
2022/04/20 13:45:47;;;;;;;16.05;12.88;;;;;;;10.04;73.12;99724.73;1829479;77;25671;-70
2022/04/20 13:48:13;;;;;;;14.40;12.45;;;;;;;10.00;72.97;99729.98;1827989;77;25505;-71
2022/04/20 13:50:41;;;;;;;15.03;11.55;;;;;;;9.97;73.01;99727.13;1847165;77;25520;-70
2022/04/20 13:53:08;;;;;;;14.90;12.50;;;;;;;9.93;72.92;99736.42;1825783;78;25672;-70
2022/04/20 13:55:34;;;;;;;15.98;12.30;;;;;;;9.91;73.04;99735.38;1847596;77;27527;-70
2022/04/20 13:58:00;;;;;;;15.25;12.18;;;;;;;9.90;73.05;99738.40;1760319;80;25693;-70
2022/04/20 14:00:28;;;;;;;15.28;12.18;;;;;;;9.88;72.93;99737.93;1780685;80;25650;-70
2022/04/20 14:02:56;;;;;;;18.95;13.00;;;;;;;9.88;73.15;99735.23;1787476;80;25547;-70
2022/04/20 14:05:23;;;;;;;18.23;12.78;;;;;;;9.86;73.13;99739.59;1787499;80;25630;-70
2022/04/20 14:07:49;;;;;;;17.15;13.13;;;;;;;9.86;73.18;99742.86;1773019;80;28091;-69
2022/04/20 14:10:15;;;;;;;19.77;12.80;;;;;;;9.86;73.41;99742.30;1781963;80;25459;-71
2022/04/20 14:12:42;;;;;;;15.95;12.33;;;;;;;9.83;73.30;99738.09;1785596;80;25755;-70
2022/04/20 14:15:09;;;;;;;16.67;12.78;;;;;;;9.81;73.35;99738.41;1768507;80;26289;-71
2022/04/20 14:17:39;;;;;;;16.05;12.15;;;;;;;9.80;73.52;99743.55;1755598;81;25692;-71
2022/04/20 14:20:09;;;;;;;16.60;11.65;;;;;;;9.80;73.38;99752.22;1786285;80;27462;-70
2022/04/20 14:22:35;;;;;;;14.35;11.73;;;;;;;9.77;73.15;99751.50;1761725;80;25720;-71
2022/04/20 14:33:19;;;;;;;26.68;17.65;;;;;;;9.69;73.75;99759.84;1778365;80;28077;-71
2022/04/20 14:35:45;;;;;;;16.55;12.18;;;;;;;9.70;73.62;99761.41;1784742;80;25615;-71
2022/04/20 14:38:11;;;;;;;17.35;12.50;;;;;;;9.72;73.88;99765.41;1786697;80;30188;-71
2022/04/20 14:40:37;;;;;;;17.48;11.90;;;;;;;9.69;73.58;99764.68;1757364;81;34871;-71
2022/04/20 14:43:05;;;;;;;14.87;12.13;;;;;;;9.66;73.65;99771.27;1754828;80;25461;-71
2022/04/20 14:45:32;;;;;;;14.83;12.43;;;;;;;9.63;73.67;99762.45;1764968;80;28126;-71
2022/04/20 14:48:01;;;;;;;12.93;11.22;;;;;;;9.62;73.83;99769.76;1786639;80;25542;-71
2022/04/20 14:50:27;;;;;;;13.72;11.78;;;;;;;9.62;73.85;99772.45;1790013;79;25625;-70
2022/04/20 14:52:54;;;;;;;16.65;12.05;;;;;;;9.61;73.76;99772.77;1757844;80;25688;-71
2022/04/20 14:55:20;;;;;;;19.23;12.55;;;;;;;9.60;73.96;99774.66;1755176;81;25784;-71
2022/04/20 14:57:46;;;;;;;17.30;12.65;;;;;;;9.59;73.94;99778.48;1789611;78;28052;-71
2022/04/20 15:00:13;;;;;;;16.25;12.85;;;;;;;9.57;74.05;99775.84;1758777;80;25721;-71
2022/04/20 15:02:41;;;;;;;16.48;12.78;;;;;;;9.56;74.02;99783.72;1768978;80;25722;-73